Time;durP1;ratioP1;P1;durP2;ratioP2;P2;SDS_P1;SDS_P2;PMS_P1;PMS_P2;Temp;Humidity;BMP_temperature;BMP_pressure;BME280_temperature;BME280_humidity;BME280_pressure;Samples;Min_cycle;Max_cycle;Signal;HPM_P1;HPM_P2
2021/04/26 00:02:14;;;;;;;29.65;27.45;;;;;;;5.99;100.00;101143.78;6213991;23;20016;-86
2021/04/26 00:04:40;;;;;;;29.33;26.67;;;;;;;5.92;100.00;101154.16;6214326;23;20027;-86
2021/04/26 00:07:07;;;;;;;29.38;26.98;;;;;;;5.74;100.00;101141.13;6213763;23;20473;-86
2021/04/26 00:09:33;;;;;;;28.60;26.00;;;;;;;5.26;100.00;101146.16;6213935;23;20019;-86
2021/04/26 00:12:00;;;;;;;24.08;22.27;;;;;;;5.23;100.00;101143.84;6213839;23;20020;-86
2021/04/26 00:14:26;;;;;;;23.02;21.02;;;;;;;5.00;100.00;101140.16;6213858;23;20394;-86
2021/04/26 00:16:54;;;;;;;22.73;20.92;;;;;;;5.38;100.00;101146.66;6213752;23;20020;-86
2021/04/26 00:19:20;;;;;;;22.88;21.27;;;;;;;5.46;100.00;101148.50;6214487;23;20094;-86
2021/04/26 00:21:46;;;;;;;24.42;22.52;;;;;;;5.51;100.00;101143.59;6214186;23;20020;-84
2021/04/26 00:24:13;;;;;;;22.17;20.67;;;;;;;5.17;100.00;101152.34;6213362;23;20024;-86
2021/04/26 00:26:39;;;;;;;25.90;23.70;;;;;;;5.36;100.00;101153.09;6214631;23;20024;-86
2021/04/26 00:29:06;;;;;;;24.35;22.60;;;;;;;5.47;100.00;101150.13;6213975;23;20021;-86
2021/04/26 00:31:32;;;;;;;22.55;20.75;;;;;;;5.12;100.00;101153.84;6213838;23;20021;-86
2021/04/26 00:33:59;;;;;;;22.17;20.35;;;;;;;5.27;100.00;101160.16;6213819;23;20031;-86
2021/04/26 00:36:25;;;;;;;21.88;20.05;;;;;;;5.36;100.00;101153.91;6213563;23;20021;-86
2021/04/26 00:38:52;;;;;;;22.90;21.13;;;;;;;5.29;100.00;101152.91;6213697;23;20459;-86
2021/04/26 00:41:18;;;;;;;23.15;21.35;;;;;;;5.35;100.00;101152.25;6213707;23;20048;-87
2021/04/26 00:43:44;;;;;;;23.73;21.92;;;;;;;5.14;100.00;101143.97;6213334;23;20028;-85
2021/04/26 00:46:13;;;;;;;24.98;22.85;;;;;;;5.20;100.00;101151.22;6212749;23;20335;-86
2021/04/26 00:48:39;;;;;;;23.38;21.42;;;;;;;5.19;100.00;101150.41;6213150;23;20366;-86
2021/04/26 00:51:06;;;;;;;24.85;23.08;;;;;;;5.31;100.00;101158.00;6213344;23;20013;-87
2021/04/26 00:53:32;;;;;;;24.33;22.33;;;;;;;5.14;100.00;101160.59;6213963;23;20075;-85
2021/04/26 00:55:59;;;;;;;24.27;22.38;;;;;;;5.01;100.00;101158.41;6213555;23;20021;-86
2021/04/26 00:58:25;;;;;;;22.40;20.35;;;;;;;5.16;100.00;101155.16;6212964;23;20032;-85
2021/04/26 01:00:52;;;;;;;28.20;25.70;;;;;;;5.18;100.00;101156.66;6212904;23;20466;-86
2021/04/26 01:03:19;;;;;;;25.30;23.10;;;;;;;5.17;100.00;101156.81;6213529;23;20024;-86
2021/04/26 01:05:46;;;;;;;23.63;21.23;;;;;;;4.57;100.00;101153.28;6212646;23;20021;-86
2021/04/26 01:08:12;;;;;;;22.38;20.48;;;;;;;4.95;100.00;101152.94;6214086;23;20024;-86
2021/04/26 01:10:40;;;;;;;24.60;22.63;;;;;;;5.03;100.00;101150.38;6213657;23;20028;-86
2021/04/26 01:13:33;;;;;;;24.23;21.88;;;;;;;5.01;100.00;101153.13;6215413;23;20028;-85
2021/04/26 01:16:07;;;;;;;24.80;23.10;;;;;;;5.10;100.00;101156.63;6215319;23;20017;-87
2021/04/26 01:18:44;;;;;;;25.20;23.38;;;;;;;5.13;100.00;101158.94;6215404;23;20028;-86
2021/04/26 01:22:07;;;;;;;26.55;24.17;;;;;;;5.03;100.00;101159.06;6215065;23;20025;-86
2021/04/26 01:24:46;;;;;;;25.00;23.02;;;;;;;5.01;100.00;101155.78;6123561;23;20022;-86
2021/04/26 01:27:23;;;;;;;23.40;21.25;;;;;;;4.11;100.00;101160.53;6123323;23;20535;-86
2021/04/26 01:30:03;;;;;;;20.13;18.45;;;;;;;3.78;100.00;101161.22;6193986;23;20409;-86
2021/04/26 01:32:35;;;;;;;21.75;19.75;;;;;;;4.27;100.00;101156.38;6215827;23;20075;-86
2021/04/26 01:35:04;;;;;;;18.98;17.10;;;;;;;3.71;100.00;101147.03;6215769;23;20021;-86
2021/04/26 01:37:35;;;;;;;23.13;20.77;;;;;;;3.78;100.00;101159.44;6215285;23;20075;-86
2021/04/26 01:40:03;;;;;;;19.70;17.58;;;;;;;3.47;100.00;101150.25;6215648;23;20032;-86
2021/04/26 01:42:31;;;;;;;19.52;17.92;;;;;;;3.96;100.00;101154.16;6214857;23;20026;-87
2021/04/26 01:45:00;;;;;;;20.33;18.73;;;;;;;3.86;100.00;101153.41;6214470;23;20024;-85
2021/04/26 01:47:27;;;;;;;21.00;19.10;;;;;;;3.91;100.00;101156.44;6214941;23;20021;-85
2021/04/26 01:49:55;;;;;;;20.27;18.42;;;;;;;3.62;100.00;101154.03;6215497;23;20098;-86
2021/04/26 01:52:21;;;;;;;25.10;19.80;;;;;;;3.88;100.00;101151.47;6215405;23;20024;-86
2021/04/26 01:54:48;;;;;;;21.55;19.75;;;;;;;3.59;100.00;101139.38;6214955;23;20024;-86
2021/04/26 01:57:15;;;;;;;21.35;19.23;;;;;;;3.87;100.00;101141.91;6214430;23;20103;-86
2021/04/26 01:59:42;;;;;;;19.25;17.50;;;;;;;3.77;100.00;101138.56;6215885;23;20024;-88
2021/04/26 02:02:08;;;;;;;19.45;17.73;;;;;;;3.98;100.00;101138.25;6209187;23;20028;-85
2021/04/26 02:04:37;;;;;;;22.80;20.42;;;;;;;4.29;100.00;101131.53;6212200;23;20051;-86
2021/04/26 02:07:05;;;;;;;23.45;21.45;;;;;;;4.44;100.00;101128.34;6213007;23;20024;-86
2021/04/26 02:09:38;;;;;;;23.83;21.95;;;;;;;4.48;100.00;101121.78;6212901;23;20021;-86
2021/04/26 02:17:08;;;;;;;20.65;19.02;;;;;;;4.57;100.00;101131.41;6212604;23;20031;-86
2021/04/26 02:19:35;;;;;;;23.17;21.48;;;;;;;4.49;100.00;101128.72;6213619;23;20379;-85
2021/04/26 02:22:01;;;;;;;22.25;20.35;;;;;;;4.49;100.00;101132.16;6213287;23;20075;-86
2021/04/26 02:24:28;;;;;;;23.35;21.70;;;;;;;4.49;100.00;101132.16;6212414;23;20023;-85
2021/04/26 02:26:58;;;;;;;24.45;22.23;;;;;;;4.65;100.00;101139.31;6213248;23;20016;-86
2021/04/26 02:29:24;;;;;;;27.00;24.42;;;;;;;4.52;100.00;101126.59;6213080;23;20025;-86
2021/04/26 02:31:54;;;;;;;23.15;21.25;;;;;;;4.71;100.00;101135.25;6212764;23;20024;-86
2021/04/26 02:34:26;;;;;;;26.45;24.48;;;;;;;4.47;100.00;101138.56;6213201;23;20024;-86
2021/04/26 02:36:58;;;;;;;25.90;23.45;;;;;;;4.27;100.00;101137.97;6212863;23;20466;-86
2021/04/26 02:39:25;;;;;;;24.63;22.30;;;;;;;3.99;100.00;101140.69;6212918;23;20017;-86
2021/04/26 02:41:52;;;;;;;26.10;24.02;;;;;;;3.93;100.00;101143.13;6213068;23;20021;-86
2021/04/26 02:44:24;;;;;;;26.83;24.45;;;;;;;4.06;100.00;101130.41;6212057;23;20025;-86
2021/04/26 02:46:53;;;;;;;26.15;23.98;;;;;;;3.77;100.00;101142.00;6212615;23;20036;-86
2021/04/26 02:49:20;;;;;;;25.33;23.10;;;;;;;3.45;100.00;101137.28;6213592;23;20051;-86
2021/04/26 02:51:48;;;;;;;21.95;20.05;;;;;;;3.51;100.00;101131.44;6213225;23;20033;-86
2021/04/26 02:54:15;;;;;;;17.55;16.08;;;;;;;3.19;100.00;101142.41;6213369;23;20024;-86
2021/04/26 02:56:42;;;;;;;19.48;17.88;;;;;;;3.41;100.00;101141.16;6213432;23;20021;-86
2021/04/26 02:59:10;;;;;;;21.52;19.80;;;;;;;3.29;100.00;101135.31;6213560;23;20028;-86
2021/04/26 03:01:37;;;;;;;21.90;19.45;;;;;;;3.22;100.00;101132.44;6213043;23;20545;-85
2021/04/26 03:04:05;;;;;;;17.60;15.98;;;;;;;3.00;100.00;101140.75;6213110;23;20024;-86
2021/04/26 03:06:32;;;;;;;21.80;19.48;;;;;;;3.00;100.00;101135.50;6212737;23;20036;-86
2021/04/26 03:08:59;;;;;;;19.23;17.33;;;;;;;2.86;100.00;101138.59;6212303;23;20020;-86
2021/04/26 03:11:27;;;;;;;20.63;18.92;;;;;;;3.27;100.00;101128.53;6200076;23;20470;-86
2021/04/26 03:13:54;;;;;;;24.00;21.88;;;;;;;3.41;100.00;101135.91;6182179;23;20363;-86
2021/04/26 03:16:21;;;;;;;22.38;20.20;;;;;;;3.33;100.00;101141.06;6202448;23;20016;-86
2021/04/26 03:18:48;;;;;;;43.30;39.47;;;;;;;3.17;100.00;101133.84;6212906;23;20020;-87
2021/04/26 03:21:15;;;;;;;45.83;41.00;;;;;;;3.43;100.00;101134.81;6212219;23;20458;-86
2021/04/26 03:23:43;;;;;;;45.15;40.38;;;;;;;3.35;100.00;101136.50;6212105;23;20088;-86
2021/04/26 03:26:10;;;;;;;53.15;45.80;;;;;;;3.70;100.00;101134.91;6212395;23;20023;-86
2021/04/26 03:28:40;;;;;;;45.85;40.08;;;;;;;3.43;100.00;101137.44;6212375;23;20024;-87
2021/04/26 03:31:08;;;;;;;33.83;30.27;;;;;;;3.29;100.00;101139.72;6212912;23;20020;-86
2021/04/26 03:33:36;;;;;;;38.28;34.10;;;;;;;3.35;100.00;101134.72;6212492;23;20070;-86
2021/04/26 03:36:05;;;;;;;46.80;41.47;;;;;;;3.63;100.00;101140.75;6211843;23;20025;-86
2021/04/26 03:38:32;;;;;;;52.25;44.63;;;;;;;3.79;100.00;101136.63;6212204;23;20021;-86
2021/04/26 03:40:59;;;;;;;47.92;42.80;;;;;;;3.76;100.00;101145.63;6212262;23;20027;-86
2021/04/26 03:43:26;;;;;;;39.70;35.67;;;;;;;3.98;100.00;101148.75;6212522;23;20024;-86
2021/04/26 03:45:56;;;;;;;40.85;36.95;;;;;;;4.13;100.00;101148.03;6212523;23;20027;-85
2021/04/26 03:48:23;;;;;;;40.65;36.72;;;;;;;4.15;100.00;101152.34;6212024;23;20024;-86
2021/04/26 03:50:51;;;;;;;49.42;43.50;;;;;;;4.25;100.00;101147.81;6212360;23;20043;-86
2021/04/26 03:53:17;;;;;;;51.70;43.03;;;;;;;4.06;100.00;101160.16;6212863;23;20078;-86
2021/04/26 03:55:44;;;;;;;22.08;20.25;;;;;;;4.39;100.00;101163.03;6211956;23;20020;-87
2021/04/26 03:58:10;;;;;;;25.15;23.15;;;;;;;4.56;100.00;101161.31;6212139;23;20362;-86
2021/04/26 04:00:37;;;;;;;23.95;21.98;;;;;;;4.70;100.00;101158.09;6211999;23;20027;-86
2021/04/26 04:03:39;;;;;;;28.52;25.75;;;;;;;4.83;100.00;101165.56;6209321;23;20024;-86
2021/04/26 04:06:09;;;;;;;28.38;26.27;;;;;;;4.94;100.00;101159.22;6131466;23;20024;-86
2021/04/26 04:08:36;;;;;;;26.15;24.15;;;;;;;5.05;100.00;101162.38;6208319;23;20020;-85
2021/04/26 04:11:03;;;;;;;24.73;22.73;;;;;;;5.14;100.00;101159.75;6212610;23;20098;-84
2021/04/26 04:13:29;;;;;;;23.20;21.40;;;;;;;5.08;100.00;101158.59;6212913;23;20036;-87
2021/04/26 04:15:55;;;;;;;23.10;20.95;;;;;;;5.18;100.00;101164.56;6211161;23;20021;-86
2021/04/26 04:18:23;;;;;;;25.00;22.75;;;;;;;5.46;100.00;101169.56;6213493;23;20505;-84
2021/04/26 04:20:50;;;;;;;26.25;24.50;;;;;;;5.48;100.00;101170.25;6205200;23;20025;-88
2021/04/26 04:23:17;;;;;;;26.80;24.75;;;;;;;5.42;100.00;101169.09;6205196;23;20060;-87
2021/04/26 04:25:43;;;;;;;26.95;24.85;;;;;;;5.58;100.00;101170.91;6206207;23;20028;-86
2021/04/26 04:28:10;;;;;;;26.10;24.38;;;;;;;5.58;100.00;101159.56;6205431;23;20021;-87
2021/04/26 04:30:36;;;;;;;30.00;27.83;;;;;;;5.68;100.00;101161.03;6205130;23;20035;-87
2021/04/26 04:33:06;;;;;;;30.50;27.77;;;;;;;5.81;100.00;101165.00;6205707;23;20025;-86
2021/04/26 04:35:32;;;;;;;32.67;30.20;;;;;;;6.05;100.00;101170.34;6205742;23;20032;-87
2021/04/26 04:37:58;;;;;;;29.98;27.55;;;;;;;6.14;100.00;101153.53;6205092;23;20029;-87
2021/04/26 04:40:27;;;;;;;30.05;27.95;;;;;;;6.18;100.00;101159.28;6204679;23;20094;-88
2021/04/26 04:42:54;;;;;;;31.50;29.23;;;;;;;6.27;100.00;101166.22;6209624;23;20021;-88
2021/04/26 04:45:20;;;;;;;31.00;28.70;;;;;;;6.40;100.00;101155.94;6211672;23;20020;-88
2021/04/26 04:47:48;;;;;;;28.65;26.45;;;;;;;6.37;100.00;101161.56;6211427;23;20078;-87
2021/04/26 04:50:15;;;;;;;28.80;26.83;;;;;;;6.47;100.00;101153.47;6212056;23;20027;-86
2021/04/26 04:52:41;;;;;;;28.33;26.30;;;;;;;6.78;100.00;101150.09;6210575;23;20025;-85
2021/04/26 04:55:09;;;;;;;31.13;29.23;;;;;;;6.80;100.00;101153.38;6210372;23;20354;-86
2021/04/26 04:57:36;;;;;;;29.88;27.98;;;;;;;6.82;100.00;101152.22;6209009;23;20486;-86
2021/04/26 05:00:06;;;;;;;30.20;27.63;;;;;;;6.91;100.00;101139.00;6209508;23;20047;-86
2021/04/26 05:02:33;;;;;;;29.70;27.83;;;;;;;7.21;100.00;101134.72;6210211;23;20087;-86
2021/04/26 05:04:59;;;;;;;32.10;29.95;;;;;;;7.24;100.00;101145.75;6209487;23;20020;-87
2021/04/26 05:07:26;;;;;;;30.40;28.40;;;;;;;7.39;100.00;101134.47;6209351;23;20023;-87
2021/04/26 05:09:52;;;;;;;30.80;28.52;;;;;;;7.41;100.00;101137.72;6210471;23;20427;-86
2021/04/26 05:12:19;;;;;;;30.33;28.13;;;;;;;7.62;100.00;101151.13;6211361;23;20020;-86
2021/04/26 05:14:48;;;;;;;31.15;29.23;;;;;;;7.76;100.00;101141.63;6210961;23;20017;-86
2021/04/26 05:17:15;;;;;;;29.48;27.48;;;;;;;7.90;100.00;101138.22;6211156;23;20052;-86
2021/04/26 05:19:41;;;;;;;33.60;30.90;;;;;;;8.01;100.00;101143.06;6212276;23;20024;-85
2021/04/26 05:22:10;;;;;;;29.58;27.67;;;;;;;8.21;100.00;101140.75;6211463;23;20052;-86
2021/04/26 05:24:37;;;;;;;28.63;26.83;;;;;;;8.22;100.00;101146.84;6210721;23;20099;-86
2021/04/26 05:27:04;;;;;;;28.75;26.80;;;;;;;8.51;100.00;101140.00;6211253;23;20063;-84
2021/04/26 05:29:32;;;;;;;29.58;27.58;;;;;;;8.73;100.00;101146.22;6211380;23;20020;-89
2021/04/26 05:32:00;;;;;;;27.38;25.38;;;;;;;9.85;100.00;101147.47;6211168;23;20023;-84
2021/04/26 05:34:26;;;;;;;27.92;26.13;;;;;;;9.73;100.00;101149.00;6210076;23;20017;-86
2021/04/26 05:36:52;;;;;;;28.00;26.10;;;;;;;9.29;100.00;101141.16;6209541;23;20021;-87
2021/04/26 05:39:19;;;;;;;26.30;24.55;;;;;;;9.44;100.00;101138.47;6211052;23;20051;-86
2021/04/26 05:41:45;;;;;;;27.75;26.05;;;;;;;9.50;100.00;101135.06;6211421;23;20020;-85
2021/04/26 05:44:12;;;;;;;29.35;27.20;;;;;;;9.72;100.00;101146.53;6211028;23;20017;-85
2021/04/26 05:46:38;;;;;;;28.85;27.05;;;;;;;9.82;100.00;101145.19;6211514;23;20021;-86
2021/04/26 05:49:05;;;;;;;27.90;25.95;;;;;;;10.05;100.00;101152.94;6212120;23;20016;-85
2021/04/26 05:51:33;;;;;;;29.90;27.83;;;;;;;10.01;100.00;101153.50;6211588;23;20028;-85
2021/04/26 05:53:59;;;;;;;27.27;25.67;;;;;;;10.10;100.00;101155.03;6211132;23;20021;-85
2021/04/26 05:56:26;;;;;;;30.90;28.90;;;;;;;10.22;100.00;101153.47;6211818;23;20021;-84
2021/04/26 05:58:54;;;;;;;28.60;26.50;;;;;;;10.59;100.00;101154.19;6211990;23;20024;-87
2021/04/26 06:01:21;;;;;;;28.20;26.40;;;;;;;10.86;100.00;101147.19;6212825;23;20021;-85
2021/04/26 06:03:48;;;;;;;29.50;27.42;;;;;;;11.09;100.00;101140.72;6213996;23;20031;-85
2021/04/26 06:06:15;;;;;;;31.85;29.63;;;;;;;11.29;100.00;101146.94;6213065;23;20021;-84
2021/04/26 06:08:41;;;;;;;28.52;26.52;;;;;;;11.51;100.00;101149.44;6213307;23;20020;-84
2021/04/26 06:11:08;;;;;;;27.20;25.50;;;;;;;11.73;100.00;101156.22;6212673;23;20031;-87
2021/04/26 06:13:34;;;;;;;29.08;27.23;;;;;;;11.93;100.00;101156.28;6212781;23;20024;-86
2021/04/26 06:16:00;;;;;;;28.05;26.25;;;;;;;12.24;100.00;101158.34;6212970;23;20083;-85
2021/04/26 06:18:26;;;;;;;25.92;24.42;;;;;;;12.42;100.00;101155.03;6212836;23;20021;-85
2021/04/26 06:20:54;;;;;;;27.92;26.33;;;;;;;12.88;100.00;101154.09;6212991;23;20037;-86
2021/04/26 06:23:22;;;;;;;27.88;25.98;;;;;;;13.23;100.00;101151.91;6213070;23;20017;-85
2021/04/26 06:25:48;;;;;;;27.77;26.17;;;;;;;13.46;100.00;101158.59;6208656;23;20017;-83
2021/04/26 06:28:16;;;;;;;28.08;26.20;;;;;;;13.63;100.00;101167.72;6201902;23;20516;-85
2021/04/26 06:30:44;;;;;;;28.70;27.02;;;;;;;13.66;100.00;101161.16;6211355;23;20025;-85
2021/04/26 06:33:15;;;;;;;28.38;26.75;;;;;;;13.92;100.00;101165.50;6211218;23;20021;-85
2021/04/26 06:35:41;;;;;;;27.88;26.38;;;;;;;14.17;100.00;101162.81;6202475;23;20031;-86
2021/04/26 06:38:08;;;;;;;28.45;27.05;;;;;;;14.46;100.00;101184.53;6204160;23;20347;-86
2021/04/26 06:40:35;;;;;;;28.48;27.00;;;;;;;14.30;99.94;101173.38;6203971;23;20028;-87
2021/04/26 06:43:01;;;;;;;29.50;27.73;;;;;;;14.22;100.00;101171.00;6203276;23;20083;-86
2021/04/26 06:45:31;;;;;;;28.35;26.55;;;;;;;14.47;100.00;101176.31;6203221;23;20021;-87
2021/04/26 06:47:59;;;;;;;29.23;27.50;;;;;;;14.56;100.00;101175.03;6203550;23;20028;-87
2021/04/26 06:50:26;;;;;;;27.45;25.88;;;;;;;14.56;100.00;101176.88;6206698;23;20031;-85
2021/04/26 06:53:01;;;;;;;30.10;28.15;;;;;;;14.78;100.00;101170.06;6205955;23;20028;-86
2021/04/26 06:55:28;;;;;;;26.67;25.23;;;;;;;15.05;100.00;101167.09;6208255;23;20363;-87
2021/04/26 06:58:03;;;;;;;26.90;25.33;;;;;;;14.84;100.00;101181.72;6206774;23;20481;-87
2021/04/26 07:00:32;;;;;;;29.08;27.17;;;;;;;14.80;95.09;101178.69;6208122;23;20046;-87
2021/04/26 07:02:59;;;;;;;29.58;27.77;;;;;;;14.65;100.00;101173.69;6207188;23;20035;-86
2021/04/26 07:05:29;;;;;;;28.75;27.13;;;;;;;14.88;100.00;101185.59;6207360;23;20017;-86
2021/04/26 07:07:56;;;;;;;27.40;25.88;;;;;;;15.16;97.27;101166.34;6206815;23;20484;-85
2021/04/26 07:10:23;;;;;;;28.77;27.08;;;;;;;15.17;100.00;101172.50;6207686;23;20046;-87
2021/04/26 07:12:50;;;;;;;28.38;26.85;;;;;;;15.29;97.06;101176.06;6207919;23;20024;-85
2021/04/26 07:15:19;;;;;;;28.38;26.60;;;;;;;15.25;100.00;101172.16;6207025;23;20028;-86
2021/04/26 07:17:48;;;;;;;28.88;27.10;;;;;;;15.27;100.00;101176.25;6206609;23;20067;-86
2021/04/26 07:20:22;;;;;;;30.40;28.67;;;;;;;15.29;100.00;101176.84;6207045;23;20467;-87
2021/04/26 07:22:54;;;;;;;29.10;27.55;;;;;;;15.30;94.04;101169.66;6209932;23;20366;-86
2021/04/26 07:25:21;;;;;;;30.02;28.33;;;;;;;15.47;94.70;101184.03;6208883;23;20056;-85
2021/04/26 07:28:09;;;;;;;32.20;30.40;;;;;;;14.92;100.00;101178.78;6208571;23;20025;-86
2021/04/26 07:30:43;;;;;;;28.73;27.20;;;;;;;15.20;100.00;101180.06;6209074;23;20399;-86
2021/04/26 07:33:13;;;;;;;31.05;28.98;;;;;;;15.61;100.00;101179.28;6208432;23;20358;-85
2021/04/26 07:35:39;;;;;;;30.92;29.42;;;;;;;15.28;100.00;101185.09;6209821;23;20028;-87
2021/04/26 07:38:06;;;;;;;32.90;31.00;;;;;;;14.49;100.00;101189.44;6211586;23;20021;-86
2021/04/26 07:40:38;;;;;;;29.17;27.58;;;;;;;15.22;100.00;101194.88;6210518;23;20020;-86
2021/04/26 07:43:12;;;;;;;;;;;;;;;15.32;100.00;101195.16;6210597;23;20031;-86
2021/04/26 07:45:42;;;;;;;28.85;27.23;;;;;;;15.23;100.00;101182.31;6211345;23;19974;-86
2021/04/26 07:48:09;;;;;;;31.73;29.75;;;;;;;15.20;100.00;101194.28;6211406;23;20025;-85
2021/04/26 07:50:35;;;;;;;32.50;30.63;;;;;;;14.91;100.00;101182.47;6211337;23;20366;-85
2021/04/26 07:53:02;;;;;;;32.22;30.42;;;;;;;15.12;100.00;101187.34;6211868;23;20027;-87
2021/04/26 07:58:19;;;;;;;29.58;27.98;;;;;;;16.26;100.00;101184.72;6212235;23;20344;-86
2021/04/26 08:00:51;;;;;;;32.47;30.50;;;;;;;16.42;100.00;101177.03;6185576;23;20025;-85
2021/04/26 08:03:33;;;;;;;32.00;30.20;;;;;;;16.67;92.19;101187.50;6212554;23;20024;-85
2021/04/26 08:06:01;;;;;;;30.30;28.60;;;;;;;16.49;84.46;101189.28;6212154;23;20017;-85
2021/04/26 08:08:28;;;;;;;31.15;29.40;;;;;;;16.74;82.21;101196.25;6212735;23;20060;-87
2021/04/26 08:10:55;;;;;;;29.77;28.08;;;;;;;16.81;83.45;101193.47;6212390;23;20023;-85
2021/04/26 08:13:26;;;;;;;29.55;27.95;;;;;;;16.55;96.13;101192.88;6212954;23;20366;-85
2021/04/26 08:15:57;;;;;;;30.25;28.52;;;;;;;17.05;90.97;101181.63;6211118;23;20020;-84
2021/04/26 08:18:26;;;;;;;30.67;29.02;;;;;;;15.99;100.00;101178.16;6211404;23;20366;-85
2021/04/26 08:20:59;;;;;;;30.73;28.88;;;;;;;16.94;81.32;101179.78;6212759;23;20438;-85
2021/04/26 08:23:27;;;;;;;30.65;28.95;;;;;;;17.09;85.18;101169.34;6205562;23;20017;-83
2021/04/26 08:25:55;;;;;;;32.70;30.55;;;;;;;17.52;80.41;101165.38;6202309;23;20199;-87
2021/04/26 08:28:26;;;;;;;30.77;28.98;;;;;;;17.48;92.26;101160.69;6207353;23;20016;-85
2021/04/26 08:30:52;;;;;;;33.15;31.20;;;;;;;16.67;90.88;101158.84;6207752;23;20029;-86
2021/04/26 08:36:15;;;;;;;30.58;28.98;;;;;;;17.97;80.00;101151.13;6210885;23;20028;-86
2021/04/26 08:38:43;;;;;;;32.75;30.95;;;;;;;16.32;100.00;101164.22;6212207;23;20023;-86
2021/04/26 08:41:13;;;;;;;32.20;30.17;;;;;;;17.25;93.24;101158.94;6212026;23;20027;-86
2021/04/26 08:43:42;;;;;;;32.72;30.70;;;;;;;17.52;93.97;101149.25;6211439;23;20024;-84
2021/04/26 08:46:10;;;;;;;34.00;32.20;;;;;;;17.56;81.84;101146.88;6212688;23;20027;-85
2021/04/26 08:48:42;;;;;;;28.95;27.48;;;;;;;17.87;72.27;101139.38;6212062;23;20016;-86
2021/04/26 08:51:09;;;;;;;32.42;30.33;;;;;;;16.47;100.00;101137.75;6212543;23;20076;-85
2021/04/26 08:56:20;;;;;;;33.85;31.92;;;;;;;18.26;80.01;101143.75;6212178;23;20021;-86
2021/04/26 08:58:48;;;;;;;33.28;31.15;;;;;;;18.71;70.80;101142.75;6212490;23;20474;-86
2021/04/26 09:01:15;;;;;;;32.50;30.60;;;;;;;18.11;73.28;101132.78;6213507;23;20078;-84
2021/04/26 09:03:42;;;;;;;29.40;27.70;;;;;;;17.30;98.04;101121.44;6187376;23;20072;-86
2021/04/26 09:06:10;;;;;;;31.23;29.42;;;;;;;18.50;71.04;101128.22;6182586;23;20032;-86
2021/04/26 09:08:38;;;;;;;29.40;27.67;;;;;;;18.36;78.01;101126.13;6183104;23;20064;-86
2021/04/26 09:11:08;;;;;;;28.25;26.55;;;;;;;18.65;61.87;101127.59;6183513;23;20418;-86
2021/04/26 09:13:41;;;;;;;30.00;28.20;;;;;;;18.23;81.27;101127.31;6183082;23;20017;-86
2021/04/26 09:16:18;;;;;;;28.95;27.33;;;;;;;17.72;83.22;101132.66;6182566;23;20026;-85
2021/04/26 09:18:58;;;;;;;29.50;27.70;;;;;;;18.12;83.13;101125.50;6182569;23;20021;-85
2021/04/26 09:21:30;;;;;;;29.92;28.00;;;;;;;17.15;96.68;101120.09;6182115;23;20017;-86
2021/04/26 09:24:23;;;;;;;29.33;27.70;;;;;;;18.83;65.40;101129.22;6181756;23;20072;-84
2021/04/26 09:26:53;;;;;;;32.20;29.45;;;;;;;18.39;78.66;101126.44;6156672;23;20092;-86
2021/04/26 09:29:44;;;;;;;29.90;27.95;;;;;;;18.94;56.41;101133.66;6182586;23;20017;-86
2021/04/26 09:32:26;;;;;;;29.00;27.30;;;;;;;18.66;58.25;101117.66;6182247;23;20028;-87
2021/04/26 09:35:14;;;;;;;31.55;29.33;;;;;;;17.49;93.14;101113.97;6181536;23;20029;-87
2021/04/26 09:37:45;;;;;;;32.03;30.02;;;;;;;16.90;100.00;101111.56;6183932;23;20478;-87
2021/04/26 09:40:15;;;;;;;30.60;28.45;;;;;;;19.13;73.87;101109.09;6184635;23;20053;-88
2021/04/26 09:42:45;;;;;;;31.20;29.15;;;;;;;18.40;87.31;101116.53;6184678;23;20481;-84
2021/04/26 09:45:45;;;;;;;33.47;31.58;;;;;;;19.36;74.31;101106.06;6184786;23;20021;-84
2021/04/26 09:48:29;;;;;;;32.03;30.05;;;;;;;18.48;87.82;101111.50;6184431;23;20024;-86
2021/04/26 09:51:02;;;;;;;29.30;27.35;;;;;;;17.31;100.00;101105.09;6185383;23;20032;-88
2021/04/26 09:53:30;;;;;;;29.92;28.23;;;;;;;18.12;94.67;101109.38;6184685;23;20029;-87
2021/04/26 09:55:58;;;;;;;29.35;27.05;;;;;;;18.71;74.67;101101.59;6184210;23;20021;-86
2021/04/26 09:58:28;;;;;;;32.35;30.30;;;;;;;19.47;57.80;101090.84;6185542;23;20079;-87
2021/04/26 10:00:56;;;;;;;32.58;30.58;;;;;;;19.28;68.52;101101.16;6185369;23;20359;-85
2021/04/26 10:03:24;;;;;;;29.38;27.40;;;;;;;19.03;74.12;101093.63;6185189;23;20021;-85
2021/04/26 10:05:51;;;;;;;31.38;29.00;;;;;;;19.55;57.41;101103.03;6184716;23;20087;-85
2021/04/26 10:08:36;;;;;;;29.52;27.55;;;;;;;18.35;82.97;101100.31;6184993;23;20028;-86
2021/04/26 10:11:03;;;;;;;30.85;29.00;;;;;;;19.99;56.69;101100.97;6185202;23;20052;-86
2021/04/26 10:13:32;;;;;;;29.67;27.67;;;;;;;20.33;53.97;101100.63;6184111;23;20056;-87
2021/04/26 10:16:00;;;;;;;29.38;27.58;;;;;;;18.84;76.22;101108.50;6183172;23;20029;-87
2021/04/26 10:18:37;;;;;;;35.03;33.08;;;;;;;17.48;93.22;101120.41;6183855;23;20017;-86
2021/04/26 10:21:25;;;;;;;31.92;30.13;;;;;;;19.06;66.75;101120.03;6183893;23;20033;-86
2021/04/26 10:24:23;;;;;;;31.00;29.15;;;;;;;18.77;74.52;101109.50;6184879;23;20418;-85
2021/04/26 10:30:02;;;;;;;32.80;30.75;;;;;;;18.29;70.99;101105.63;6184729;23;20422;-87
2021/04/26 10:32:32;;;;;;;33.97;31.88;;;;;;;17.39;96.52;101099.31;6184537;23;20028;-86
2021/04/26 10:35:15;;;;;;;31.15;29.55;;;;;;;20.29;53.17;101088.75;6181240;23;20032;-86
2021/04/26 10:37:44;;;;;;;32.25;30.40;;;;;;;19.73;51.27;101091.06;6180206;23;20097;-86
2021/04/26 10:40:18;;;;;;;31.58;29.52;;;;;;;20.51;43.35;101093.97;6179411;23;20153;-86
2021/04/26 10:42:47;;;;;;;32.20;30.30;;;;;;;19.59;54.89;101096.88;6178974;23;20110;-85
2021/04/26 10:45:31;;;;;;;28.50;26.85;;;;;;;19.11;72.02;101087.78;6179536;23;20467;-87
2021/04/26 10:48:13;;;;;;;29.40;27.50;;;;;;;20.52;56.13;101096.44;6180128;23;20036;-87
2021/04/26 10:50:42;;;;;;;32.58;30.70;;;;;;;19.46;54.62;101100.00;6177696;23;20025;-86
2021/04/26 10:53:13;;;;;;;30.95;28.90;;;;;;;20.06;34.43;101090.78;6153887;23;20410;-87
2021/04/26 10:56:06;;;;;;;32.03;30.13;;;;;;;20.47;33.61;101091.00;6179745;23;20467;-87
2021/04/26 10:58:41;;;;;;;30.63;28.70;;;;;;;18.54;55.43;101085.50;6179931;23;20346;-86
2021/04/26 11:01:17;;;;;;;33.65;31.73;;;;;;;16.51;100.00;101081.78;6180376;23;20036;-86
2021/04/26 11:03:45;;;;;;;33.55;31.48;;;;;;;20.08;50.15;101077.84;6183506;23;20029;-86
2021/04/26 11:06:17;;;;;;;28.48;26.80;;;;;;;19.10;69.90;101078.09;6182788;23;20031;-86
2021/04/26 11:09:05;;;;;;;29.17;27.38;;;;;;;19.18;63.62;101080.34;6184902;23;20032;-86
2021/04/26 11:11:48;;;;;;;30.75;28.85;;;;;;;19.70;45.83;101076.25;6185014;23;20024;-88
2021/04/26 11:14:21;;;;;;;;;;;;;;;19.62;46.24;101074.78;6186073;23;20025;-85
2021/04/26 11:17:03;;;;;;;30.92;29.17;;;;;;;18.23;79.24;101079.72;6184426;23;19920;-85
2021/04/26 11:19:41;;;;;;;31.55;29.75;;;;;;;18.50;81.31;101079.00;6185910;23;20021;-85
2021/04/26 11:22:09;;;;;;;33.47;31.63;;;;;;;19.76;50.49;101068.97;6184680;23;20017;-86
2021/04/26 11:25:04;;;;;;;33.30;31.23;;;;;;;20.40;52.02;101070.75;6185110;23;20017;-85
2021/04/26 11:27:34;;;;;;;32.53;30.27;;;;;;;21.21;43.90;101071.00;6179601;23;20045;-87
2021/04/26 11:30:20;;;;;;;31.60;29.70;;;;;;;20.46;44.16;101065.09;6179082;23;20037;-86
2021/04/26 11:33:14;;;;;;;30.77;28.98;;;;;;;20.65;54.50;101057.38;6176819;23;20024;-87
2021/04/26 11:36:20;;;;;;;30.00;28.20;;;;;;;20.11;52.76;101069.22;6151478;23;20043;-88
2021/04/26 11:38:47;;;;;;;30.08;28.25;;;;;;;18.39;82.08;101058.41;6177795;23;20044;-88
2021/04/26 11:41:15;;;;;;;30.90;29.20;;;;;;;20.43;60.58;101054.84;6178276;23;20052;-88